sensor_id;sensor_type;location;lat;lon;timestamp;P1;durP1;ratioP1;P2;durP2;ratioP2
42196;SDS011;27866;48.146;17.098;2023-02-28T00:02:28;9.00;;;4.80;;
42196;SDS011;27866;48.146;17.098;2023-02-28T00:06:40;9.18;;;4.13;;
42196;SDS011;27866;48.146;17.098;2023-02-28T00:10:52;9.07;;;4.30;;
42196;SDS011;27866;48.146;17.098;2023-02-28T00:15:07;8.52;;;4.38;;
42196;SDS011;27866;48.146;17.098;2023-02-28T00:19:20;8.05;;;4.45;;
42196;SDS011;27866;48.146;17.098;2023-02-28T00:23:32;8.13;;;4.28;;
42196;SDS011;27866;48.146;17.098;2023-02-28T00:27:44;9.35;;;5.28;;
42196;SDS011;27866;48.146;17.098;2023-02-28T00:31:56;9.82;;;5.45;;
42196;SDS011;27866;48.146;17.098;2023-02-28T00:36:09;11.10;;;5.90;;
42196;SDS011;27866;48.146;17.098;2023-02-28T00:40:22;10.90;;;6.65;;
42196;SDS011;27866;48.146;17.098;2023-02-28T00:44:33;14.98;;;7.70;;
42196;SDS011;27866;48.146;17.098;2023-02-28T00:48:44;15.30;;;8.02;;
42196;SDS011;27866;48.146;17.098;2023-02-28T00:52:55;16.42;;;8.25;;
42196;SDS011;27866;48.146;17.098;2023-02-28T00:57:07;16.80;;;7.93;;
42196;SDS011;27866;48.146;17.098;2023-02-28T01:01:18;13.38;;;7.75;;
42196;SDS011;27866;48.146;17.098;2023-02-28T01:05:29;13.38;;;7.25;;
42196;SDS011;27866;48.146;17.098;2023-02-28T01:09:41;14.23;;;6.63;;
42196;SDS011;27866;48.146;17.098;2023-02-28T01:13:52;14.10;;;7.43;;
42196;SDS011;27866;48.146;17.098;2023-02-28T01:18:03;15.80;;;7.40;;
42196;SDS011;27866;48.146;17.098;2023-02-28T01:22:15;15.50;;;7.50;;
42196;SDS011;27866;48.146;17.098;2023-02-28T01:26:26;12.98;;;6.97;;
42196;SDS011;27866;48.146;17.098;2023-02-28T01:30:38;13.82;;;7.32;;
42196;SDS011;27866;48.146;17.098;2023-02-28T01:34:50;13.75;;;7.47;;
42196;SDS011;27866;48.146;17.098;2023-02-28T01:39:02;15.52;;;8.20;;
42196;SDS011;27866;48.146;17.098;2023-02-28T01:43:23;16.80;;;9.68;;
42196;SDS011;27866;48.146;17.098;2023-02-28T01:48:04;17.88;;;9.60;;
42196;SDS011;27866;48.146;17.098;2023-02-28T01:52:19;18.00;;;9.52;;
42196;SDS011;27866;48.146;17.098;2023-02-28T01:56:32;20.10;;;10.00;;
42196;SDS011;27866;48.146;17.098;2023-02-28T02:00:46;20.85;;;9.80;;
42196;SDS011;27866;48.146;17.098;2023-02-28T02:05:04;16.25;;;8.60;;
42196;SDS011;27866;48.146;17.098;2023-02-28T02:17:45;17.23;;;7.90;;
42196;SDS011;27866;48.146;17.098;2023-02-28T02:31:49;15.38;;;8.32;;
42196;SDS011;27866;48.146;17.098;2023-02-28T02:36:33;14.88;;;8.43;;
42196;SDS011;27866;48.146;17.098;2023-02-28T02:49:56;18.88;;;9.20;;
42196;SDS011;27866;48.146;17.098;2023-02-28T02:54:13;17.42;;;8.63;;
42196;SDS011;27866;48.146;17.098;2023-02-28T02:58:40;16.58;;;9.13;;
42196;SDS011;27866;48.146;17.098;2023-02-28T03:02:54;16.10;;;8.50;;
42196;SDS011;27866;48.146;17.098;2023-02-28T03:07:06;19.50;;;9.20;;
42196;SDS011;27866;48.146;17.098;2023-02-28T03:11:17;19.55;;;9.95;;
42196;SDS011;27866;48.146;17.098;2023-02-28T03:25:15;19.45;;;9.38;;
42196;SDS011;27866;48.146;17.098;2023-02-28T03:29:50;23.60;;;12.38;;
42196;SDS011;27866;48.146;17.098;2023-02-28T03:34:15;24.05;;;11.68;;
42196;SDS011;27866;48.146;17.098;2023-02-28T03:38:38;27.00;;;11.02;;
42196;SDS011;27866;48.146;17.098;2023-02-28T03:43:07;22.23;;;12.00;;
42196;SDS011;27866;48.146;17.098;2023-02-28T03:47:27;21.00;;;9.77;;
42196;SDS011;27866;48.146;17.098;2023-02-28T03:51:50;19.63;;;10.13;;
42196;SDS011;27866;48.146;17.098;2023-02-28T03:56:12;23.10;;;10.82;;
42196;SDS011;27866;48.146;17.098;2023-02-28T04:00:36;23.55;;;11.05;;
42196;SDS011;27866;48.146;17.098;2023-02-28T04:04:52;24.83;;;12.00;;
42196;SDS011;27866;48.146;17.098;2023-02-28T04:09:05;23.75;;;11.00;;
42196;SDS011;27866;48.146;17.098;2023-02-28T04:13:18;20.70;;;10.90;;
42196;SDS011;27866;48.146;17.098;2023-02-28T04:17:29;23.08;;;11.55;;
42196;SDS011;27866;48.146;17.098;2023-02-28T04:21:42;26.52;;;12.55;;
42196;SDS011;27866;48.146;17.098;2023-02-28T04:25:59;21.55;;;11.82;;
42196;SDS011;27866;48.146;17.098;2023-02-28T04:30:10;28.23;;;12.38;;
42196;SDS011;27866;48.146;17.098;2023-02-28T04:34:22;24.83;;;11.63;;
42196;SDS011;27866;48.146;17.098;2023-02-28T04:38:35;21.10;;;11.25;;
42196;SDS011;27866;48.146;17.098;2023-02-28T04:42:48;22.55;;;11.38;;
42196;SDS011;27866;48.146;17.098;2023-02-28T04:46:59;24.27;;;11.23;;
42196;SDS011;27866;48.146;17.098;2023-02-28T04:51:12;21.05;;;10.50;;
42196;SDS011;27866;48.146;17.098;2023-02-28T04:55:25;22.00;;;10.73;;
42196;SDS011;27866;48.146;17.098;2023-02-28T04:59:36;23.77;;;11.60;;
42196;SDS011;27866;48.146;17.098;2023-02-28T05:03:48;21.85;;;10.90;;
42196;SDS011;27866;48.146;17.098;2023-02-28T05:08:01;20.10;;;10.93;;
42196;SDS011;27866;48.146;17.098;2023-02-28T05:12:12;21.23;;;11.18;;
42196;SDS011;27866;48.146;17.098;2023-02-28T05:16:23;22.25;;;10.68;;
42196;SDS011;27866;48.146;17.098;2023-02-28T05:20:34;24.45;;;11.68;;
42196;SDS011;27866;48.146;17.098;2023-02-28T05:24:45;25.40;;;11.20;;
42196;SDS011;27866;48.146;17.098;2023-02-28T05:28:57;25.73;;;12.00;;
42196;SDS011;27866;48.146;17.098;2023-02-28T05:33:09;21.75;;;10.55;;
42196;SDS011;27866;48.146;17.098;2023-02-28T05:37:22;27.02;;;12.30;;
42196;SDS011;27866;48.146;17.098;2023-02-28T05:41:33;19.92;;;10.60;;
42196;SDS011;27866;48.146;17.098;2023-02-28T05:45:44;29.00;;;12.10;;
42196;SDS011;27866;48.146;17.098;2023-02-28T05:49:55;27.48;;;12.15;;
42196;SDS011;27866;48.146;17.098;2023-02-28T05:54:08;21.10;;;11.07;;
42196;SDS011;27866;48.146;17.098;2023-02-28T05:58:20;21.02;;;10.82;;
42196;SDS011;27866;48.146;17.098;2023-02-28T06:02:31;20.35;;;10.30;;
42196;SDS011;27866;48.146;17.098;2023-02-28T06:06:43;22.05;;;10.68;;
42196;SDS011;27866;48.146;17.098;2023-02-28T06:11:02;28.00;;;10.50;;
42196;SDS011;27866;48.146;17.098;2023-02-28T06:15:15;19.58;;;9.88;;
42196;SDS011;27866;48.146;17.098;2023-02-28T06:19:27;20.05;;;10.07;;
42196;SDS011;27866;48.146;17.098;2023-02-28T06:23:40;20.73;;;10.52;;
42196;SDS011;27866;48.146;17.098;2023-02-28T06:27:51;23.38;;;11.55;;
42196;SDS011;27866;48.146;17.098;2023-02-28T06:32:03;28.98;;;10.68;;
42196;SDS011;27866;48.146;17.098;2023-02-28T06:36:16;21.73;;;10.68;;
42196;SDS011;27866;48.146;17.098;2023-02-28T06:40:28;20.85;;;9.85;;
42196;SDS011;27866;48.146;17.098;2023-02-28T06:44:42;21.92;;;10.15;;
42196;SDS011;27866;48.146;17.098;2023-02-28T06:48:53;20.65;;;9.10;;
42196;SDS011;27866;48.146;17.098;2023-02-28T06:53:04;17.88;;;9.32;;
42196;SDS011;27866;48.146;17.098;2023-02-28T06:57:16;18.45;;;9.25;;
42196;SDS011;27866;48.146;17.098;2023-02-28T07:01:27;15.27;;;9.18;;
42196;SDS011;27866;48.146;17.098;2023-02-28T07:05:39;14.23;;;8.45;;
42196;SDS011;27866;48.146;17.098;2023-02-28T07:09:50;16.27;;;8.05;;
42196;SDS011;27866;48.146;17.098;2023-02-28T07:14:01;18.25;;;8.13;;
42196;SDS011;27866;48.146;17.098;2023-02-28T07:18:13;17.80;;;8.95;;
42196;SDS011;27866;48.146;17.098;2023-02-28T07:22:24;16.08;;;9.23;;
42196;SDS011;27866;48.146;17.098;2023-02-28T07:26:35;15.15;;;8.40;;
42196;SDS011;27866;48.146;17.098;2023-02-28T07:30:47;16.63;;;8.43;;
42196;SDS011;27866;48.146;17.098;2023-02-28T07:34:58;16.75;;;9.18;;
42196;SDS011;27866;48.146;17.098;2023-02-28T07:39:09;17.83;;;8.68;;
42196;SDS011;27866;48.146;17.098;2023-02-28T07:43:21;18.30;;;9.20;;
42196;SDS011;27866;48.146;17.098;2023-02-28T07:47:32;16.33;;;9.27;;
42196;SDS011;27866;48.146;17.098;2023-02-28T07:51:44;16.77;;;9.20;;
42196;SDS011;27866;48.146;17.098;2023-02-28T07:55:56;19.65;;;9.25;;
42196;SDS011;27866;48.146;17.098;2023-02-28T08:00:11;16.95;;;8.85;;
42196;SDS011;27866;48.146;17.098;2023-02-28T08:04:24;21.33;;;10.50;;
42196;SDS011;27866;48.146;17.098;2023-02-28T08:08:36;18.35;;;9.60;;
42196;SDS011;27866;48.146;17.098;2023-02-28T08:12:47;18.85;;;9.95;;
42196;SDS011;27866;48.146;17.098;2023-02-28T08:16:59;17.98;;;9.50;;
42196;SDS011;27866;48.146;17.098;2023-02-28T08:21:11;17.73;;;9.20;;
42196;SDS011;27866;48.146;17.098;2023-02-28T08:25:22;15.25;;;9.85;;
42196;SDS011;27866;48.146;17.098;2023-02-28T08:29:33;16.38;;;8.85;;
42196;SDS011;27866;48.146;17.098;2023-02-28T08:33:48;17.02;;;9.75;;
42196;SDS011;27866;48.146;17.098;2023-02-28T08:38:02;19.17;;;9.95;;
42196;SDS011;27866;48.146;17.098;2023-02-28T08:42:13;18.02;;;10.55;;
42196;SDS011;27866;48.146;17.098;2023-02-28T08:46:25;19.05;;;9.95;;
42196;SDS011;27866;48.146;17.098;2023-02-28T08:50:36;17.05;;;9.90;;
42196;SDS011;27866;48.146;17.098;2023-02-28T08:54:48;15.35;;;9.25;;
42196;SDS011;27866;48.146;17.098;2023-02-28T08:58:59;13.93;;;9.70;;
42196;SDS011;27866;48.146;17.098;2023-02-28T09:03:10;16.30;;;10.55;;
42196;SDS011;27866;48.146;17.098;2023-02-28T09:07:22;19.20;;;10.60;;
42196;SDS011;27866;48.146;17.098;2023-02-28T09:11:33;16.90;;;9.75;;
42196;SDS011;27866;48.146;17.098;2023-02-28T09:15:45;15.25;;;9.82;;
42196;SDS011;27866;48.146;17.098;2023-02-28T09:19:57;15.80;;;10.45;;
42196;SDS011;27866;48.146;17.098;2023-02-28T09:24:08;20.20;;;10.38;;
42196;SDS011;27866;48.146;17.098;2023-02-28T09:28:22;17.20;;;10.32;;
42196;SDS011;27866;48.146;17.098;2023-02-28T09:32:33;14.68;;;9.90;;
42196;SDS011;27866;48.146;17.098;2023-02-28T09:36:44;16.35;;;9.88;;
42196;SDS011;27866;48.146;17.098;2023-02-28T09:40:57;16.77;;;9.75;;
42196;SDS011;27866;48.146;17.098;2023-02-28T09:45:17;16.77;;;9.23;;
42196;SDS011;27866;48.146;17.098;2023-02-28T09:49:46;17.80;;;10.05;;
42196;SDS011;27866;48.146;17.098;2023-02-28T09:53:59;16.52;;;9.50;;
42196;SDS011;27866;48.146;17.098;2023-02-28T09:58:54;17.40;;;11.00;;
42196;SDS011;27866;48.146;17.098;2023-02-28T10:03:31;17.25;;;10.05;;
42196;SDS011;27866;48.146;17.098;2023-02-28T10:12:30;17.95;;;11.68;;
42196;SDS011;27866;48.146;17.098;2023-02-28T10:16:44;17.83;;;10.77;;
42196;SDS011;27866;48.146;17.098;2023-02-28T10:21:12;15.85;;;10.40;;
42196;SDS011;27866;48.146;17.098;2023-02-28T10:25:35;20.10;;;10.95;;
42196;SDS011;27866;48.146;17.098;2023-02-28T10:29:49;18.45;;;11.60;;
42196;SDS011;27866;48.146;17.098;2023-02-28T10:34:03;13.90;;;8.95;;
42196;SDS011;27866;48.146;17.098;2023-02-28T10:38:18;16.88;;;9.85;;
42196;SDS011;27866;48.146;17.098;2023-02-28T10:47:24;15.90;;;9.77;;
42196;SDS011;27866;48.146;17.098;2023-02-28T10:51:39;14.15;;;8.80;;
42196;SDS011;27866;48.146;17.098;2023-02-28T11:00:22;15.50;;;9.93;;
42196;SDS011;27866;48.146;17.098;2023-02-28T11:08:50;17.08;;;9.48;;
42196;SDS011;27866;48.146;17.098;2023-02-28T11:13:05;14.93;;;9.18;;
42196;SDS011;27866;48.146;17.098;2023-02-28T11:17:23;13.50;;;8.75;;
42196;SDS011;27866;48.146;17.098;2023-02-28T11:21:37;16.08;;;9.27;;
42196;SDS011;27866;48.146;17.098;2023-02-28T11:25:51;15.35;;;9.10;;
42196;SDS011;27866;48.146;17.098;2023-02-28T11:30:22;14.75;;;9.23;;
42196;SDS011;27866;48.146;17.098;2023-02-28T11:34:45;16.40;;;8.63;;
42196;SDS011;27866;48.146;17.098;2023-02-28T11:39:10;13.27;;;8.27;;
42196;SDS011;27866;48.146;17.098;2023-02-28T11:43:39;13.00;;;8.27;;
42196;SDS011;27866;48.146;17.098;2023-02-28T11:48:22;14.33;;;7.47;;
42196;SDS011;27866;48.146;17.098;2023-02-28T11:53:00;10.07;;;7.93;;
42196;SDS011;27866;48.146;17.098;2023-02-28T12:06:50;10.57;;;7.13;;
42196;SDS011;27866;48.146;17.098;2023-02-28T12:30:17;8.00;;;6.45;;
42196;SDS011;27866;48.146;17.098;2023-02-28T12:34:44;10.27;;;6.80;;
42196;SDS011;27866;48.146;17.098;2023-02-28T12:39:07;9.98;;;6.90;;
42196;SDS011;27866;48.146;17.098;2023-02-28T12:43:28;9.45;;;7.13;;
42196;SDS011;27866;48.146;17.098;2023-02-28T12:47:48;16.67;;;7.30;;
42196;SDS011;27866;48.146;17.098;2023-02-28T12:52:07;9.95;;;7.03;;
42196;SDS011;27866;48.146;17.098;2023-02-28T12:56:30;9.63;;;6.43;;
42196;SDS011;27866;48.146;17.098;2023-02-28T13:10:11;10.52;;;6.57;;
42196;SDS011;27866;48.146;17.098;2023-02-28T13:14:30;16.17;;;7.03;;
42196;SDS011;27866;48.146;17.098;2023-02-28T13:18:47;9.65;;;6.88;;
42196;SDS011;27866;48.146;17.098;2023-02-28T13:22:59;10.88;;;6.40;;
42196;SDS011;27866;48.146;17.098;2023-02-28T13:31:27;12.93;;;6.25;;
42196;SDS011;27866;48.146;17.098;2023-02-28T13:35:43;8.27;;;6.15;;
42196;SDS011;27866;48.146;17.098;2023-02-28T13:49:31;10.25;;;6.70;;
42196;SDS011;27866;48.146;17.098;2023-02-28T13:53:54;10.00;;;6.95;;
42196;SDS011;27866;48.146;17.098;2023-02-28T14:07:46;10.70;;;6.32;;
42196;SDS011;27866;48.146;17.098;2023-02-28T14:17:07;9.60;;;7.40;;
42196;SDS011;27866;48.146;17.098;2023-02-28T14:21:32;10.50;;;7.22;;
42196;SDS011;27866;48.146;17.098;2023-02-28T19:08:02;14.43;;;7.65;;
42196;SDS011;27866;48.146;17.098;2023-02-28T19:12:15;13.35;;;7.55;;
42196;SDS011;27866;48.146;17.098;2023-02-28T19:16:28;13.02;;;7.95;;
42196;SDS011;27866;48.146;17.098;2023-02-28T19:20:40;16.02;;;7.82;;
42196;SDS011;27866;48.146;17.098;2023-02-28T19:24:51;16.00;;;8.02;;
42196;SDS011;27866;48.146;17.098;2023-02-28T19:29:03;14.73;;;8.27;;
42196;SDS011;27866;48.146;17.098;2023-02-28T19:33:15;20.40;;;9.43;;
42196;SDS011;27866;48.146;17.098;2023-02-28T19:37:27;15.15;;;8.18;;
42196;SDS011;27866;48.146;17.098;2023-02-28T19:41:38;16.90;;;8.77;;
42196;SDS011;27866;48.146;17.098;2023-02-28T19:45:49;16.35;;;8.80;;
42196;SDS011;27866;48.146;17.098;2023-02-28T19:50:01;16.17;;;8.18;;
42196;SDS011;27866;48.146;17.098;2023-02-28T19:54:12;15.80;;;8.18;;
42196;SDS011;27866;48.146;17.098;2023-02-28T19:58:23;14.65;;;7.70;;
42196;SDS011;27866;48.146;17.098;2023-02-28T20:02:35;16.80;;;8.70;;
42196;SDS011;27866;48.146;17.098;2023-02-28T20:06:47;17.42;;;8.60;;
42196;SDS011;27866;48.146;17.098;2023-02-28T20:11:02;18.55;;;8.82;;
42196;SDS011;27866;48.146;17.098;2023-02-28T20:15:19;16.80;;;8.77;;
42196;SDS011;27866;48.146;17.098;2023-02-28T20:19:30;17.70;;;8.98;;
42196;SDS011;27866;48.146;17.098;2023-02-28T20:23:41;21.08;;;9.00;;
42196;SDS011;27866;48.146;17.098;2023-02-28T20:27:54;22.42;;;9.38;;
42196;SDS011;27866;48.146;17.098;2023-02-28T20:32:05;18.80;;;9.57;;
42196;SDS011;27866;48.146;17.098;2023-02-28T20:36:17;14.85;;;8.93;;
42196;SDS011;27866;48.146;17.098;2023-02-28T20:40:30;17.88;;;8.88;;
42196;SDS011;27866;48.146;17.098;2023-02-28T20:44:41;18.58;;;9.00;;
42196;SDS011;27866;48.146;17.098;2023-02-28T20:48:53;18.10;;;8.88;;
42196;SDS011;27866;48.146;17.098;2023-02-28T20:53:04;16.60;;;8.77;;
42196;SDS011;27866;48.146;17.098;2023-02-28T20:57:16;17.05;;;8.48;;
42196;SDS011;27866;48.146;17.098;2023-02-28T21:01:27;15.27;;;8.85;;
42196;SDS011;27866;48.146;17.098;2023-02-28T21:05:39;18.98;;;9.10;;
42196;SDS011;27866;48.146;17.098;2023-02-28T21:09:52;16.58;;;9.40;;
42196;SDS011;27866;48.146;17.098;2023-02-28T21:14:06;17.02;;;9.15;;
42196;SDS011;27866;48.146;17.098;2023-02-28T21:18:23;16.67;;;9.13;;
42196;SDS011;27866;48.146;17.098;2023-02-28T21:22:34;23.10;;;10.63;;
42196;SDS011;27866;48.146;17.098;2023-02-28T21:26:45;27.83;;;10.20;;
42196;SDS011;27866;48.146;17.098;2023-02-28T21:31:04;21.10;;;10.68;;
42196;SDS011;27866;48.146;17.098;2023-02-28T21:35:18;20.67;;;10.38;;
42196;SDS011;27866;48.146;17.098;2023-02-28T21:39:29;23.00;;;9.73;;
42196;SDS011;27866;48.146;17.098;2023-02-28T21:43:43;20.25;;;10.05;;
42196;SDS011;27866;48.146;17.098;2023-02-28T21:47:57;21.27;;;11.55;;
42196;SDS011;27866;48.146;17.098;2023-02-28T21:52:09;16.17;;;9.07;;
42196;SDS011;27866;48.146;17.098;2023-02-28T21:56:24;21.05;;;10.20;;
42196;SDS011;27866;48.146;17.098;2023-02-28T22:00:39;18.35;;;9.73;;
42196;SDS011;27866;48.146;17.098;2023-02-28T22:04:51;17.95;;;9.35;;
42196;SDS011;27866;48.146;17.098;2023-02-28T22:09:03;16.30;;;9.10;;
42196;SDS011;27866;48.146;17.098;2023-02-28T22:13:17;17.73;;;8.80;;
42196;SDS011;27866;48.146;17.098;2023-02-28T22:17:30;16.08;;;9.10;;
42196;SDS011;27866;48.146;17.098;2023-02-28T22:21:41;17.05;;;8.93;;
42196;SDS011;27866;48.146;17.098;2023-02-28T22:25:53;17.92;;;8.77;;
42196;SDS011;27866;48.146;17.098;2023-02-28T22:30:05;18.55;;;8.43;;
42196;SDS011;27866;48.146;17.098;2023-02-28T22:34:17;13.80;;;8.25;;
42196;SDS011;27866;48.146;17.098;2023-02-28T22:38:28;15.73;;;9.00;;
42196;SDS011;27866;48.146;17.098;2023-02-28T22:42:44;16.67;;;8.73;;
42196;SDS011;27866;48.146;17.098;2023-02-28T22:46:55;20.38;;;9.00;;
42196;SDS011;27866;48.146;17.098;2023-02-28T22:51:11;15.68;;;8.43;;
42196;SDS011;27866;48.146;17.098;2023-02-28T22:55:25;17.42;;;9.00;;
42196;SDS011;27866;48.146;17.098;2023-02-28T22:59:36;18.65;;;8.90;;
42196;SDS011;27866;48.146;17.098;2023-02-28T23:03:47;19.17;;;9.05;;
42196;SDS011;27866;48.146;17.098;2023-02-28T23:07:59;13.75;;;8.05;;
42196;SDS011;27866;48.146;17.098;2023-02-28T23:12:10;18.20;;;8.32;;
42196;SDS011;27866;48.146;17.098;2023-02-28T23:16:21;17.05;;;8.50;;
42196;SDS011;27866;48.146;17.098;2023-02-28T23:20:45;15.82;;;8.82;;
42196;SDS011;27866;48.146;17.098;2023-02-28T23:24:56;18.30;;;9.00;;
42196;SDS011;27866;48.146;17.098;2023-02-28T23:29:08;16.38;;;8.93;;
42196;SDS011;27866;48.146;17.098;2023-02-28T23:33:20;19.40;;;8.75;;
42196;SDS011;27866;48.146;17.098;2023-02-28T23:37:32;18.33;;;8.90;;
42196;SDS011;27866;48.146;17.098;2023-02-28T23:41:45;16.70;;;8.93;;
42196;SDS011;27866;48.146;17.098;2023-02-28T23:45:57;18.35;;;9.13;;
42196;SDS011;27866;48.146;17.098;2023-02-28T23:50:08;19.77;;;10.10;;
42196;SDS011;27866;48.146;17.098;2023-02-28T23:54:20;16.60;;;8.45;;
42196;SDS011;27866;48.146;17.098;2023-02-28T23:58:32;18.48;;;10.18;;
